Lakeville, Pennsylvania
Current Conditions -  °F | °C
As of 8:53 PM on Friday 21 Nov 2014 (Local Time) from KMPO Reporting Station
Clear Clear  
Wind Chill: 12°   Ceiling: Unl
Heat Index: 12°   Visibility: 10mi
Dew Point:   Wind: 3mph
Humidity: 80%   Direction: 280°W
Pressure: 30.36"   Gusts: NA
Location:  41.43°N, 75.27°W
Report Text: KMPO 220153Z AUTO 28003KT 10SM CLR M11/M14 A3036 RMK AO2 SLP320 T11111139
Loading
Personal Weather Stations






























Interactive Weather Map New forecast layout! Learn more

10-Day Weather Forecast

Advertisements
Track Severe Weather on mobile